sensor_id;sensor_type;location;lat;lon;timestamp;P1;durP1;ratioP1;P2;durP2;ratioP2
14933;SDS011;7560;51.364;12.384;2023-07-29T00:03:18;2.15;;;1.30;;
14933;SDS011;7560;51.364;12.384;2023-07-29T00:08:20;1.88;;;1.33;;
14933;SDS011;7560;51.364;12.384;2023-07-29T00:13:22;1.80;;;1.50;;
14933;SDS011;7560;51.364;12.384;2023-07-29T00:18:23;1.45;;;1.35;;
14933;SDS011;7560;51.364;12.384;2023-07-29T00:23:25;2.65;;;1.80;;
14933;SDS011;7560;51.364;12.384;2023-07-29T00:28:27;1.38;;;1.27;;
14933;SDS011;7560;51.364;12.384;2023-07-29T00:33:29;2.55;;;1.38;;
14933;SDS011;7560;51.364;12.384;2023-07-29T00:38:30;2.28;;;1.27;;
14933;SDS011;7560;51.364;12.384;2023-07-29T00:43:32;1.02;;;1.00;;
14933;SDS011;7560;51.364;12.384;2023-07-29T00:48:34;1.35;;;1.25;;
14933;SDS011;7560;51.364;12.384;2023-07-29T00:53:37;1.40;;;1.20;;
14933;SDS011;7560;51.364;12.384;2023-07-29T00:58:39;1.30;;;1.20;;
14933;SDS011;7560;51.364;12.384;2023-07-29T01:03:41;1.50;;;1.40;;
14933;SDS011;7560;51.364;12.384;2023-07-29T01:08:46;1.40;;;1.30;;
14933;SDS011;7560;51.364;12.384;2023-07-29T01:14:10;2.65;;;1.45;;
14933;SDS011;7560;51.364;12.384;2023-07-29T01:25:00;1.60;;;1.17;;
14933;SDS011;7560;51.364;12.384;2023-07-29T01:30:03;1.70;;;1.60;;
14933;SDS011;7560;51.364;12.384;2023-07-29T01:40:45;2.97;;;1.30;;
14933;SDS011;7560;51.364;12.384;2023-07-29T01:45:49;1.67;;;1.58;;
14933;SDS011;7560;51.364;12.384;2023-07-29T01:50:51;1.48;;;1.38;;
14933;SDS011;7560;51.364;12.384;2023-07-29T01:55:53;2.78;;;1.63;;
14933;SDS011;7560;51.364;12.384;2023-07-29T02:00:55;1.58;;;1.48;;
14933;SDS011;7560;51.364;12.384;2023-07-29T02:05:57;1.88;;;1.40;;
14933;SDS011;7560;51.364;12.384;2023-07-29T02:10:58;1.75;;;1.52;;
14933;SDS011;7560;51.364;12.384;2023-07-29T02:16:00;2.33;;;1.40;;
14933;SDS011;7560;51.364;12.384;2023-07-29T02:21:02;1.65;;;1.27;;
14933;SDS011;7560;51.364;12.384;2023-07-29T02:26:04;2.28;;;1.50;;
14933;SDS011;7560;51.364;12.384;2023-07-29T02:31:09;2.17;;;1.50;;
14933;SDS011;7560;51.364;12.384;2023-07-29T02:36:22;1.80;;;1.70;;
14933;SDS011;7560;51.364;12.384;2023-07-29T02:41:23;1.92;;;1.40;;
14933;SDS011;7560;51.364;12.384;2023-07-29T02:46:25;2.85;;;1.60;;
14933;SDS011;7560;51.364;12.384;2023-07-29T02:51:27;2.53;;;1.70;;
14933;SDS011;7560;51.364;12.384;2023-07-29T02:56:29;1.42;;;1.33;;
14933;SDS011;7560;51.364;12.384;2023-07-29T03:01:31;2.00;;;1.80;;
14933;SDS011;7560;51.364;12.384;2023-07-29T03:06:33;2.95;;;1.67;;
14933;SDS011;7560;51.364;12.384;2023-07-29T03:11:35;1.98;;;1.85;;
14933;SDS011;7560;51.364;12.384;2023-07-29T03:16:37;2.00;;;1.90;;
14933;SDS011;7560;51.364;12.384;2023-07-29T03:21:39;1.65;;;1.40;;
14933;SDS011;7560;51.364;12.384;2023-07-29T03:26:41;2.15;;;1.80;;
14933;SDS011;7560;51.364;12.384;2023-07-29T03:31:46;1.95;;;1.85;;
14933;SDS011;7560;51.364;12.384;2023-07-29T03:36:48;3.30;;;1.70;;
14933;SDS011;7560;51.364;12.384;2023-07-29T03:41:52;2.30;;;1.90;;
14933;SDS011;7560;51.364;12.384;2023-07-29T03:46:53;1.60;;;1.50;;
14933;SDS011;7560;51.364;12.384;2023-07-29T03:51:55;2.10;;;1.73;;
14933;SDS011;7560;51.364;12.384;2023-07-29T03:56:58;2.00;;;1.90;;
14933;SDS011;7560;51.364;12.384;2023-07-29T04:01:59;4.00;;;2.30;;
14933;SDS011;7560;51.364;12.384;2023-07-29T04:07:01;2.22;;;2.05;;
14933;SDS011;7560;51.364;12.384;2023-07-29T04:12:03;2.40;;;2.05;;
14933;SDS011;7560;51.364;12.384;2023-07-29T04:17:05;2.40;;;2.20;;
14933;SDS011;7560;51.364;12.384;2023-07-29T04:22:08;2.63;;;2.25;;
14933;SDS011;7560;51.364;12.384;2023-07-29T04:27:09;2.72;;;2.10;;
14933;SDS011;7560;51.364;12.384;2023-07-29T04:32:11;2.88;;;2.20;;
14933;SDS011;7560;51.364;12.384;2023-07-29T04:37:13;3.35;;;2.00;;
14933;SDS011;7560;51.364;12.384;2023-07-29T04:42:15;2.30;;;2.10;;
14933;SDS011;7560;51.364;12.384;2023-07-29T04:47:16;2.95;;;2.05;;
14933;SDS011;7560;51.364;12.384;2023-07-29T04:52:18;2.30;;;2.10;;
14933;SDS011;7560;51.364;12.384;2023-07-29T04:57:20;2.20;;;1.92;;
14933;SDS011;7560;51.364;12.384;2023-07-29T05:02:22;2.40;;;2.20;;
14933;SDS011;7560;51.364;12.384;2023-07-29T05:07:24;1.98;;;1.73;;
14933;SDS011;7560;51.364;12.384;2023-07-29T05:12:26;4.20;;;1.90;;
14933;SDS011;7560;51.364;12.384;2023-07-29T05:17:28;2.97;;;1.98;;
14933;SDS011;7560;51.364;12.384;2023-07-29T05:22:29;2.28;;;1.73;;
14933;SDS011;7560;51.364;12.384;2023-07-29T05:27:31;1.70;;;1.60;;
14933;SDS011;7560;51.364;12.384;2023-07-29T05:32:33;2.00;;;1.80;;
14933;SDS011;7560;51.364;12.384;2023-07-29T05:37:35;2.67;;;1.90;;
14933;SDS011;7560;51.364;12.384;2023-07-29T05:42:39;2.05;;;1.75;;
14933;SDS011;7560;51.364;12.384;2023-07-29T05:47:41;2.13;;;1.70;;
14933;SDS011;7560;51.364;12.384;2023-07-29T05:52:43;1.90;;;1.80;;
14933;SDS011;7560;51.364;12.384;2023-07-29T05:57:44;2.00;;;1.90;;
14933;SDS011;7560;51.364;12.384;2023-07-29T06:02:46;2.10;;;1.90;;
14933;SDS011;7560;51.364;12.384;2023-07-29T06:07:48;1.95;;;1.63;;
14933;SDS011;7560;51.364;12.384;2023-07-29T06:12:50;2.55;;;2.35;;
14933;SDS011;7560;51.364;12.384;2023-07-29T06:17:52;2.15;;;2.00;;
14933;SDS011;7560;51.364;12.384;2023-07-29T06:22:57;1.80;;;1.70;;
14933;SDS011;7560;51.364;12.384;2023-07-29T06:27:59;1.83;;;1.73;;
14933;SDS011;7560;51.364;12.384;2023-07-29T06:33:01;2.08;;;1.70;;
14933;SDS011;7560;51.364;12.384;2023-07-29T06:38:04;2.08;;;1.85;;
14933;SDS011;7560;51.364;12.384;2023-07-29T06:43:06;1.73;;;1.63;;
14933;SDS011;7560;51.364;12.384;2023-07-29T06:48:08;2.10;;;1.90;;
14933;SDS011;7560;51.364;12.384;2023-07-29T06:53:10;2.72;;;2.20;;
14933;SDS011;7560;51.364;12.384;2023-07-29T06:58:11;3.08;;;2.03;;
14933;SDS011;7560;51.364;12.384;2023-07-29T07:03:13;3.50;;;2.10;;
14933;SDS011;7560;51.364;12.384;2023-07-29T07:08:15;2.10;;;1.95;;
14933;SDS011;7560;51.364;12.384;2023-07-29T07:13:17;1.90;;;1.80;;
14933;SDS011;7560;51.364;12.384;2023-07-29T07:18:19;1.80;;;1.70;;
14933;SDS011;7560;51.364;12.384;2023-07-29T07:23:23;1.67;;;1.58;;
14933;SDS011;7560;51.364;12.384;2023-07-29T07:28:25;2.47;;;1.63;;
14933;SDS011;7560;51.364;12.384;2023-07-29T07:33:27;1.83;;;1.73;;
14933;SDS011;7560;51.364;12.384;2023-07-29T07:38:28;2.15;;;1.65;;
14933;SDS011;7560;51.364;12.384;2023-07-29T07:43:30;1.58;;;1.48;;
14933;SDS011;7560;51.364;12.384;2023-07-29T07:48:32;1.70;;;1.58;;
14933;SDS011;7560;51.364;12.384;2023-07-29T07:53:34;2.80;;;1.70;;
14933;SDS011;7560;51.364;12.384;2023-07-29T07:58:36;2.50;;;1.70;;
14933;SDS011;7560;51.364;12.384;2023-07-29T08:03:37;1.60;;;1.50;;
14933;SDS011;7560;51.364;12.384;2023-07-29T08:08:39;3.50;;;1.92;;
14933;SDS011;7560;51.364;12.384;2023-07-29T08:13:41;2.13;;;1.48;;
14933;SDS011;7560;51.364;12.384;2023-07-29T08:18:43;1.77;;;1.55;;
14933;SDS011;7560;51.364;12.384;2023-07-29T08:23:45;3.20;;;1.85;;
14933;SDS011;7560;51.364;12.384;2023-07-29T08:28:48;3.25;;;2.30;;
14933;SDS011;7560;51.364;12.384;2023-07-29T08:33:53;1.75;;;1.65;;
14933;SDS011;7560;51.364;12.384;2023-07-29T08:38:55;1.70;;;1.60;;
14933;SDS011;7560;51.364;12.384;2023-07-29T08:49:02;1.77;;;1.40;;
14933;SDS011;7560;51.364;12.384;2023-07-29T08:54:04;2.67;;;1.50;;
14933;SDS011;7560;51.364;12.384;2023-07-29T08:59:07;3.15;;;1.67;;
14933;SDS011;7560;51.364;12.384;2023-07-29T09:04:09;3.25;;;1.60;;
14933;SDS011;7560;51.364;12.384;2023-07-29T09:09:11;1.88;;;1.45;;
14933;SDS011;7560;51.364;12.384;2023-07-29T09:14:14;1.90;;;1.50;;
14933;SDS011;7560;51.364;12.384;2023-07-29T09:19:16;1.60;;;1.45;;
14933;SDS011;7560;51.364;12.384;2023-07-29T09:24:17;2.08;;;1.33;;
14933;SDS011;7560;51.364;12.384;2023-07-29T09:29:22;1.23;;;1.13;;
14933;SDS011;7560;51.364;12.384;2023-07-29T09:34:25;1.65;;;0.80;;
14933;SDS011;7560;51.364;12.384;2023-07-29T09:39:29;1.20;;;0.90;;
14933;SDS011;7560;51.364;12.384;2023-07-29T09:44:35;2.45;;;1.10;;
14933;SDS011;7560;51.364;12.384;2023-07-29T09:49:40;0.90;;;0.90;;
14933;SDS011;7560;51.364;12.384;2023-07-29T09:54:43;1.00;;;0.90;;
14933;SDS011;7560;51.364;12.384;2023-07-29T09:59:53;1.30;;;1.10;;
14933;SDS011;7560;51.364;12.384;2023-07-29T10:04:56;5.70;;;1.10;;
14933;SDS011;7560;51.364;12.384;2023-07-29T10:10:00;1.00;;;0.90;;
14933;SDS011;7560;51.364;12.384;2023-07-29T10:15:04;1.50;;;1.40;;
14933;SDS011;7560;51.364;12.384;2023-07-29T10:20:08;1.27;;;1.17;;
14933;SDS011;7560;51.364;12.384;2023-07-29T10:25:18;3.10;;;1.20;;
14933;SDS011;7560;51.364;12.384;2023-07-29T10:30:24;1.63;;;1.50;;
14933;SDS011;7560;51.364;12.384;2023-07-29T10:35:26;2.53;;;1.00;;
14933;SDS011;7560;51.364;12.384;2023-07-29T10:40:45;3.50;;;0.90;;
14933;SDS011;7560;51.364;12.384;2023-07-29T10:45:57;1.15;;;1.05;;
14933;SDS011;7560;51.364;12.384;2023-07-29T10:56:28;1.30;;;1.20;;
14933;SDS011;7560;51.364;12.384;2023-07-29T11:01:32;1.95;;;1.10;;
14933;SDS011;7560;51.364;12.384;2023-07-29T11:06:49;1.50;;;1.38;;
14933;SDS011;7560;51.364;12.384;2023-07-29T11:12:07;1.35;;;1.25;;
14933;SDS011;7560;51.364;12.384;2023-07-29T11:17:53;1.40;;;0.90;;
14933;SDS011;7560;51.364;12.384;2023-07-29T11:22:56;1.95;;;1.27;;
14933;SDS011;7560;51.364;12.384;2023-07-29T11:28:00;2.35;;;1.30;;
14933;SDS011;7560;51.364;12.384;2023-07-29T11:33:07;1.80;;;1.10;;
14933;SDS011;7560;51.364;12.384;2023-07-29T11:38:14;2.03;;;1.27;;
14933;SDS011;7560;51.364;12.384;2023-07-29T11:43:19;2.97;;;1.42;;
14933;SDS011;7560;51.364;12.384;2023-07-29T11:48:28;1.30;;;1.20;;
14933;SDS011;7560;51.364;12.384;2023-07-29T11:53:32;1.42;;;1.30;;
14933;SDS011;7560;51.364;12.384;2023-07-29T11:58:34;2.08;;;1.80;;
14933;SDS011;7560;51.364;12.384;2023-07-29T12:03:35;1.40;;;1.30;;
14933;SDS011;7560;51.364;12.384;2023-07-29T12:08:37;1.55;;;1.20;;
14933;SDS011;7560;51.364;12.384;2023-07-29T12:13:41;2.42;;;1.42;;
14933;SDS011;7560;51.364;12.384;2023-07-29T12:18:43;2.72;;;1.38;;
14933;SDS011;7560;51.364;12.384;2023-07-29T12:23:45;1.48;;;1.20;;
14933;SDS011;7560;51.364;12.384;2023-07-29T12:28:46;1.63;;;1.52;;
14933;SDS011;7560;51.364;12.384;2023-07-29T12:33:55;2.38;;;1.40;;
14933;SDS011;7560;51.364;12.384;2023-07-29T12:38:59;2.15;;;1.40;;
14933;SDS011;7560;51.364;12.384;2023-07-29T12:44:00;1.70;;;1.20;;
14933;SDS011;7560;51.364;12.384;2023-07-29T12:49:02;1.25;;;1.15;;
14933;SDS011;7560;51.364;12.384;2023-07-29T12:54:04;2.00;;;1.30;;
14933;SDS011;7560;51.364;12.384;2023-07-29T12:59:06;1.70;;;1.35;;
14933;SDS011;7560;51.364;12.384;2023-07-29T13:04:09;1.08;;;1.02;;
14933;SDS011;7560;51.364;12.384;2023-07-29T13:09:11;1.65;;;1.13;;
14933;SDS011;7560;51.364;12.384;2023-07-29T13:14:13;1.20;;;1.10;;
14933;SDS011;7560;51.364;12.384;2023-07-29T13:19:15;1.30;;;1.20;;
14933;SDS011;7560;51.364;12.384;2023-07-29T13:24:16;1.40;;;1.30;;
14933;SDS011;7560;51.364;12.384;2023-07-29T13:29:18;1.23;;;1.20;;
14933;SDS011;7560;51.364;12.384;2023-07-29T13:34:20;2.28;;;1.20;;
14933;SDS011;7560;51.364;12.384;2023-07-29T13:39:22;1.58;;;1.48;;
14933;SDS011;7560;51.364;12.384;2023-07-29T13:44:24;1.50;;;1.40;;
14933;SDS011;7560;51.364;12.384;2023-07-29T13:49:26;1.20;;;1.10;;
14933;SDS011;7560;51.364;12.384;2023-07-29T13:54:27;1.65;;;1.10;;
14933;SDS011;7560;51.364;12.384;2023-07-29T13:59:30;1.33;;;1.23;;
14933;SDS011;7560;51.364;12.384;2023-07-29T14:04:32;1.40;;;1.30;;
14933;SDS011;7560;51.364;12.384;2023-07-29T14:09:34;1.25;;;1.15;;
14933;SDS011;7560;51.364;12.384;2023-07-29T14:14:36;1.27;;;1.17;;
14933;SDS011;7560;51.364;12.384;2023-07-29T14:19:38;1.60;;;1.40;;
14933;SDS011;7560;51.364;12.384;2023-07-29T14:24:40;2.30;;;1.55;;
14933;SDS011;7560;51.364;12.384;2023-07-29T14:29:41;1.40;;;1.30;;
14933;SDS011;7560;51.364;12.384;2023-07-29T14:34:43;1.75;;;1.40;;
14933;SDS011;7560;51.364;12.384;2023-07-29T14:39:45;2.83;;;1.80;;
14933;SDS011;7560;51.364;12.384;2023-07-29T14:44:46;1.88;;;1.60;;
14933;SDS011;7560;51.364;12.384;2023-07-29T14:49:48;2.45;;;1.80;;
14933;SDS011;7560;51.364;12.384;2023-07-29T14:54:50;3.55;;;1.63;;
14933;SDS011;7560;51.364;12.384;2023-07-29T14:59:52;2.78;;;2.03;;
14933;SDS011;7560;51.364;12.384;2023-07-29T15:04:54;2.30;;;1.85;;
14933;SDS011;7560;51.364;12.384;2023-07-29T15:09:55;3.53;;;2.20;;
14933;SDS011;7560;51.364;12.384;2023-07-29T15:14:57;2.75;;;1.92;;
14933;SDS011;7560;51.364;12.384;2023-07-29T15:19:59;4.22;;;1.75;;
14933;SDS011;7560;51.364;12.384;2023-07-29T15:25:01;5.10;;;2.30;;
14933;SDS011;7560;51.364;12.384;2023-07-29T15:30:03;2.75;;;2.17;;
14933;SDS011;7560;51.364;12.384;2023-07-29T15:35:06;2.63;;;2.17;;
14933;SDS011;7560;51.364;12.384;2023-07-29T15:40:08;4.93;;;2.58;;
14933;SDS011;7560;51.364;12.384;2023-07-29T15:45:10;3.83;;;2.50;;
14933;SDS011;7560;51.364;12.384;2023-07-29T15:50:11;3.65;;;2.00;;
14933;SDS011;7560;51.364;12.384;2023-07-29T15:55:13;3.72;;;2.22;;
14933;SDS011;7560;51.364;12.384;2023-07-29T16:00:15;2.92;;;2.35;;
14933;SDS011;7560;51.364;12.384;2023-07-29T16:05:17;2.20;;;2.00;;
14933;SDS011;7560;51.364;12.384;2023-07-29T16:10:19;6.18;;;2.20;;
14933;SDS011;7560;51.364;12.384;2023-07-29T16:15:21;4.50;;;2.40;;
14933;SDS011;7560;51.364;12.384;2023-07-29T16:20:22;3.83;;;2.28;;
14933;SDS011;7560;51.364;12.384;2023-07-29T16:25:24;3.35;;;2.13;;
14933;SDS011;7560;51.364;12.384;2023-07-29T16:30:26;2.13;;;1.83;;
14933;SDS011;7560;51.364;12.384;2023-07-29T16:35:28;2.28;;;1.75;;
14933;SDS011;7560;51.364;12.384;2023-07-29T16:40:30;2.47;;;1.83;;
14933;SDS011;7560;51.364;12.384;2023-07-29T16:45:31;3.15;;;2.00;;
14933;SDS011;7560;51.364;12.384;2023-07-29T16:50:33;7.35;;;2.10;;
14933;SDS011;7560;51.364;12.384;2023-07-29T16:55:36;2.33;;;1.92;;
14933;SDS011;7560;51.364;12.384;2023-07-29T17:00:37;2.10;;;1.80;;
14933;SDS011;7560;51.364;12.384;2023-07-29T17:05:39;1.90;;;1.80;;
14933;SDS011;7560;51.364;12.384;2023-07-29T17:10:41;5.68;;;2.92;;
14933;SDS011;7560;51.364;12.384;2023-07-29T17:15:43;2.13;;;1.80;;
14933;SDS011;7560;51.364;12.384;2023-07-29T17:20:44;3.60;;;3.30;;
14933;SDS011;7560;51.364;12.384;2023-07-29T17:25:46;3.03;;;2.30;;
14933;SDS011;7560;51.364;12.384;2023-07-29T17:30:49;3.75;;;2.20;;
14933;SDS011;7560;51.364;12.384;2023-07-29T17:35:52;4.35;;;2.30;;
14933;SDS011;7560;51.364;12.384;2023-07-29T17:40:56;2.70;;;2.10;;
14933;SDS011;7560;51.364;12.384;2023-07-29T17:46:02;2.92;;;1.77;;
14933;SDS011;7560;51.364;12.384;2023-07-29T17:51:04;2.97;;;2.25;;
14933;SDS011;7560;51.364;12.384;2023-07-29T17:56:05;2.83;;;1.90;;
14933;SDS011;7560;51.364;12.384;2023-07-29T18:01:09;4.13;;;1.98;;
14933;SDS011;7560;51.364;12.384;2023-07-29T18:06:11;3.97;;;2.20;;
14933;SDS011;7560;51.364;12.384;2023-07-29T18:11:14;4.65;;;1.80;;
14933;SDS011;7560;51.364;12.384;2023-07-29T18:16:17;2.92;;;1.70;;
14933;SDS011;7560;51.364;12.384;2023-07-29T18:21:21;2.97;;;2.08;;
14933;SDS011;7560;51.364;12.384;2023-07-29T18:26:23;2.85;;;1.98;;
14933;SDS011;7560;51.364;12.384;2023-07-29T18:31:25;2.42;;;1.73;;
14933;SDS011;7560;51.364;12.384;2023-07-29T18:36:27;2.17;;;1.60;;
14933;SDS011;7560;51.364;12.384;2023-07-29T18:41:32;4.28;;;2.10;;
14933;SDS011;7560;51.364;12.384;2023-07-29T18:46:34;2.38;;;1.88;;
14933;SDS011;7560;51.364;12.384;2023-07-29T18:51:36;2.40;;;1.77;;
14933;SDS011;7560;51.364;12.384;2023-07-29T18:56:38;3.65;;;2.03;;
14933;SDS011;7560;51.364;12.384;2023-07-29T19:01:40;2.30;;;2.10;;
14933;SDS011;7560;51.364;12.384;2023-07-29T19:06:42;2.63;;;2.17;;
14933;SDS011;7560;51.364;12.384;2023-07-29T19:11:44;3.25;;;2.33;;
14933;SDS011;7560;51.364;12.384;2023-07-29T19:16:45;2.53;;;2.05;;
14933;SDS011;7560;51.364;12.384;2023-07-29T19:21:47;3.25;;;2.08;;
14933;SDS011;7560;51.364;12.384;2023-07-29T19:26:51;3.72;;;2.55;;
14933;SDS011;7560;51.364;12.384;2023-07-29T19:31:53;3.65;;;2.42;;
14933;SDS011;7560;51.364;12.384;2023-07-29T19:36:54;2.22;;;2.03;;
14933;SDS011;7560;51.364;12.384;2023-07-29T19:41:59;3.15;;;2.35;;
14933;SDS011;7560;51.364;12.384;2023-07-29T19:47:01;2.67;;;2.25;;
14933;SDS011;7560;51.364;12.384;2023-07-29T19:52:03;3.58;;;2.38;;
14933;SDS011;7560;51.364;12.384;2023-07-29T19:57:05;8.75;;;6.93;;
14933;SDS011;7560;51.364;12.384;2023-07-29T20:02:08;4.70;;;2.58;;
14933;SDS011;7560;51.364;12.384;2023-07-29T20:07:10;2.53;;;2.13;;
14933;SDS011;7560;51.364;12.384;2023-07-29T20:12:12;2.60;;;2.38;;
14933;SDS011;7560;51.364;12.384;2023-07-29T20:17:13;2.72;;;2.53;;
14933;SDS011;7560;51.364;12.384;2023-07-29T20:22:15;3.05;;;2.08;;
14933;SDS011;7560;51.364;12.384;2023-07-29T20:27:17;2.38;;;2.13;;
14933;SDS011;7560;51.364;12.384;2023-07-29T20:32:19;2.13;;;1.92;;
14933;SDS011;7560;51.364;12.384;2023-07-29T20:37:20;3.00;;;2.20;;
14933;SDS011;7560;51.364;12.384;2023-07-29T20:42:22;4.07;;;2.30;;
14933;SDS011;7560;51.364;12.384;2023-07-29T20:47:24;3.28;;;2.22;;
14933;SDS011;7560;51.364;12.384;2023-07-29T20:52:26;3.33;;;2.40;;
14933;SDS011;7560;51.364;12.384;2023-07-29T20:57:28;2.72;;;2.15;;
14933;SDS011;7560;51.364;12.384;2023-07-29T21:02:30;4.05;;;2.88;;
14933;SDS011;7560;51.364;12.384;2023-07-29T21:07:32;4.55;;;2.40;;
14933;SDS011;7560;51.364;12.384;2023-07-29T21:12:33;4.18;;;2.95;;
14933;SDS011;7560;51.364;12.384;2023-07-29T21:17:35;3.08;;;2.50;;
14933;SDS011;7560;51.364;12.384;2023-07-29T21:22:37;3.33;;;2.80;;
14933;SDS011;7560;51.364;12.384;2023-07-29T21:27:39;3.53;;;2.88;;
14933;SDS011;7560;51.364;12.384;2023-07-29T21:32:41;4.15;;;2.90;;
14933;SDS011;7560;51.364;12.384;2023-07-29T21:37:43;5.53;;;3.40;;
14933;SDS011;7560;51.364;12.384;2023-07-29T21:42:44;5.40;;;3.13;;
14933;SDS011;7560;51.364;12.384;2023-07-29T21:47:46;6.35;;;3.33;;
14933;SDS011;7560;51.364;12.384;2023-07-29T21:52:48;4.40;;;3.10;;
14933;SDS011;7560;51.364;12.384;2023-07-29T21:57:50;3.85;;;2.80;;
14933;SDS011;7560;51.364;12.384;2023-07-29T22:02:52;4.72;;;2.83;;
14933;SDS011;7560;51.364;12.384;2023-07-29T22:07:56;4.57;;;2.65;;
14933;SDS011;7560;51.364;12.384;2023-07-29T22:12:57;4.68;;;3.28;;
14933;SDS011;7560;51.364;12.384;2023-07-29T22:18:00;3.55;;;3.00;;
14933;SDS011;7560;51.364;12.384;2023-07-29T22:23:01;4.50;;;3.28;;
14933;SDS011;7560;51.364;12.384;2023-07-29T22:28:03;3.72;;;2.85;;
14933;SDS011;7560;51.364;12.384;2023-07-29T22:33:05;3.28;;;2.95;;
14933;SDS011;7560;51.364;12.384;2023-07-29T22:38:07;4.15;;;3.47;;
14933;SDS011;7560;51.364;12.384;2023-07-29T22:43:09;4.30;;;3.08;;
14933;SDS011;7560;51.364;12.384;2023-07-29T22:48:10;3.80;;;3.38;;
14933;SDS011;7560;51.364;12.384;2023-07-29T22:53:12;4.05;;;3.35;;
14933;SDS011;7560;51.364;12.384;2023-07-29T22:58:15;5.57;;;3.30;;
14933;SDS011;7560;51.364;12.384;2023-07-29T23:03:18;3.45;;;2.95;;
14933;SDS011;7560;51.364;12.384;2023-07-29T23:08:21;3.70;;;3.30;;
14933;SDS011;7560;51.364;12.384;2023-07-29T23:13:23;4.93;;;3.55;;
14933;SDS011;7560;51.364;12.384;2023-07-29T23:18:25;4.07;;;3.65;;
14933;SDS011;7560;51.364;12.384;2023-07-29T23:23:27;4.28;;;3.70;;
14933;SDS011;7560;51.364;12.384;2023-07-29T23:28:29;6.15;;;3.63;;
14933;SDS011;7560;51.364;12.384;2023-07-29T23:33:30;6.45;;;3.80;;
14933;SDS011;7560;51.364;12.384;2023-07-29T23:38:32;6.22;;;3.75;;
14933;SDS011;7560;51.364;12.384;2023-07-29T23:43:34;6.57;;;3.50;;
14933;SDS011;7560;51.364;12.384;2023-07-29T23:48:36;4.22;;;3.30;;
14933;SDS011;7560;51.364;12.384;2023-07-29T23:53:37;8.35;;;4.38;;
14933;SDS011;7560;51.364;12.384;2023-07-29T23:58:39;5.78;;;3.88;;
